Creston, North Carolina
Current Conditions -  °F | °C
As of 4:15 PM on Tuesday 27 Jan 2015 (Local Time) from KGEV Reporting Station
Clear Clear  
Wind Chill: 15°   Ceiling: Unl
Heat Index: 28°   Visibility: 10mi
Dew Point: 12°   Wind: 18mph
Humidity: 51%   Direction: 310°NW
Pressure: 29.79"   Gusts: 29mph
Location:  36.43°N, 81.62°W
Report Text: KGEV 272115Z AUTO 31016G25KT 10SM CLR M02/M11 A2979 RMK AO2 T10231113
Loading
Personal Weather Stations






























Interactive Weather Map New forecast layout! Learn more

10-Day Weather Forecast

Advertisements
Track Severe Weather on mobile